Time;durP1;ratioP1;P1;durP2;ratioP2;P2;SDS_P1;SDS_P2;PMS_P1;PMS_P2;Temp;Humidity;BMP_temperature;BMP_pressure;BME280_temperature;BME280_humidity;BME280_pressure;Samples;Min_cycle;Max_cycle;Signal;HPM_P1;HPM_P2
2023/11/28 00:02:17;;;;;;;18.80;10.17;;;;;;;;;;2614325;54;20411;-74
2023/11/28 00:04:44;;;;;;;11.77;10.47;;;;;;;;;;2614232;46;20383;-75
2023/11/28 00:07:10;;;;;;;14.37;10.53;;;;;;;;;;2615008;54;20519;-75
2023/11/28 00:09:36;;;;;;;11.67;8.83;;;;;;;;;;2615521;54;20496;-75
2023/11/28 00:12:03;;;;;;;11.07;8.90;;;;;;;;;;2615435;54;21019;-74
2023/11/28 00:14:38;;;;;;;14.57;10.30;;;;;;;;;;2615025;47;20430;-75
2023/11/28 00:17:04;;;;;;;12.30;8.77;;;;;;;;;;2615005;47;20418;-75
2023/11/28 00:19:30;;;;;;;12.87;9.40;;;;;;;;;;2612647;54;20406;-74
2023/11/28 00:21:56;;;;;;;11.00;9.00;;;;;;;;;;2612492;39;20871;-74
2023/11/28 00:24:22;;;;;;;13.90;10.50;;;;;;;;;;2611658;54;20460;-74
2023/11/28 00:26:48;;;;;;;11.37;9.13;;;;;;;;;;2612186;54;20970;-75
2023/11/28 00:29:15;;;;;;;12.70;8.80;;;;;;;;;;2612507;54;20395;-74
2023/11/28 00:31:44;;;;;;;12.33;9.30;;;;;;;;;;2612669;39;21091;-74
2023/11/28 00:34:10;;;;;;;12.97;8.47;;;;;;;;;;2612019;54;20455;-74
2023/11/28 00:36:36;;;;;;;11.00;8.50;;;;;;;;;;2611508;54;20448;-74
2023/11/28 00:39:03;;;;;;;9.97;8.30;;;;;;;;;;2612644;54;20410;-73
2023/11/28 00:41:29;;;;;;;9.63;7.27;;;;;;;;;;2612574;39;20745;-73
2023/11/28 00:43:55;;;;;;;10.40;8.87;;;;;;;;;;2612257;46;20407;-74
2023/11/28 00:46:24;;;;;;;11.33;8.60;;;;;;;;;;2612365;54;20427;-74
2023/11/28 00:48:50;;;;;;;8.00;6.60;;;;;;;;;;2612039;54;20386;-74
2023/11/28 00:51:17;;;;;;;10.97;7.27;;;;;;;;;;2612303;54;20496;-75
2023/11/28 00:53:43;;;;;;;10.87;7.50;;;;;;;;;;2612252;54;20945;-74
2023/11/28 00:56:09;;;;;;;10.30;7.30;;;;;;;;;;2613008;39;21234;-75
2023/11/28 00:58:35;;;;;;;8.50;7.07;;;;;;;;;;2611844;54;20410;-75
2023/11/28 01:01:01;;;;;;;5.50;4.60;;;;;;;;;;2611045;54;20391;-75
2023/11/28 01:03:28;;;;;;;7.23;6.00;;;;;;;;;;2611505;54;20410;-75
2023/11/28 01:05:54;;;;;;;8.13;5.97;;;;;;;;;;2611819;39;20857;-74
2023/11/28 01:08:20;;;;;;;6.87;5.73;;;;;;;;;;2612179;46;20874;-75
2023/11/28 01:10:46;;;;;;;8.83;6.20;;;;;;;;;;2612355;54;20407;-75
2023/11/28 01:13:12;;;;;;;6.57;5.93;;;;;;;;;;2612301;54;21230;-75
2023/11/28 01:15:38;;;;;;;6.20;4.97;;;;;;;;;;2611910;54;20419;-74
2023/11/28 01:18:04;;;;;;;7.60;6.33;;;;;;;;;;2611480;46;20506;-75
2023/11/28 01:20:30;;;;;;;6.27;5.07;;;;;;;;;;2611698;39;21081;-76
2023/11/28 01:22:56;;;;;;;5.90;5.23;;;;;;;;;;2612632;54;20491;-76
2023/11/28 01:25:22;;;;;;;6.90;6.00;;;;;;;;;;2611407;54;20403;-75
2023/11/28 01:27:48;;;;;;;6.77;5.73;;;;;;;;;;2612000;54;20490;-72
2023/11/28 01:30:15;;;;;;;5.83;5.23;;;;;;;;;;2612120;39;20939;-72
2023/11/28 01:32:41;;;;;;;6.30;5.70;;;;;;;;;;2611642;54;20412;-73
2023/11/28 01:35:08;;;;;;;8.60;6.40;;;;;;;;;;2612566;39;20863;-73
2023/11/28 01:37:35;;;;;;;7.77;6.17;;;;;;;;;;2612121;54;20411;-73
2023/11/28 01:40:02;;;;;;;6.50;4.60;;;;;;;;;;2612618;47;20407;-74
2023/11/28 01:42:28;;;;;;;7.83;5.60;;;;;;;;;;2612947;54;20427;-75
2023/11/28 01:44:54;;;;;;;6.10;4.90;;;;;;;;;;2613001;54;20394;-74
2023/11/28 01:47:21;;;;;;;7.40;6.43;;;;;;;;;;2613482;54;21444;-75
2023/11/28 01:49:48;;;;;;;5.73;5.10;;;;;;;;;;2613460;54;20417;-74
2023/11/28 01:52:14;;;;;;;8.67;6.97;;;;;;;;;;2613811;46;20450;-74
2023/11/28 01:54:42;;;;;;;6.47;5.77;;;;;;;;;;2613727;54;20517;-74
2023/11/28 01:57:08;;;;;;;7.20;6.40;;;;;;;;;;2613752;46;20505;-74
2023/11/28 01:59:35;;;;;;;6.80;6.10;;;;;;;;;;2613882;54;20466;-74
2023/11/28 02:02:03;;;;;;;6.40;5.80;;;;;;;;;;2613872;54;20407;-75
2023/11/28 02:04:29;;;;;;;7.50;6.47;;;;;;;;;;2613323;54;20410;-75
2023/11/28 02:06:58;;;;;;;7.43;6.23;;;;;;;;;;2613808;54;20427;-74
2023/11/28 02:09:25;;;;;;;6.37;5.73;;;;;;;;;;2612450;54;20511;-75
2023/11/28 02:11:51;;;;;;;8.23;6.40;;;;;;;;;;2612006;54;20505;-75
2023/11/28 02:14:17;;;;;;;7.53;6.60;;;;;;;;;;2612182;54;20454;-75
2023/11/28 02:16:43;;;;;;;7.43;6.63;;;;;;;;;;2611983;39;20743;-75
2023/11/28 02:19:09;;;;;;;9.97;6.60;;;;;;;;;;2611415;47;20926;-74
2023/11/28 02:21:35;;;;;;;6.70;6.00;;;;;;;;;;2611114;47;20407;-75
2023/11/28 02:24:02;;;;;;;7.20;5.70;;;;;;;;;;2612298;39;20807;-75
2023/11/28 02:26:28;;;;;;;7.70;6.87;;;;;;;;;;2610936;47;20404;-75
2023/11/28 02:28:55;;;;;;;6.50;5.63;;;;;;;;;;2612324;54;20950;-74
2023/11/28 02:31:22;;;;;;;9.77;7.37;;;;;;;;;;2611999;54;20388;-75
2023/11/28 02:33:48;;;;;;;7.30;6.13;;;;;;;;;;2611028;54;20399;-74
2023/11/28 02:36:14;;;;;;;10.40;8.80;;;;;;;;;;2612656;54;20414;-75
2023/11/28 02:38:41;;;;;;;9.73;7.60;;;;;;;;;;2611940;54;20415;-75
2023/11/28 02:41:07;;;;;;;10.77;8.60;;;;;;;;;;2613516;54;20433;-75
2023/11/28 02:43:34;;;;;;;10.27;7.33;;;;;;;;;;2612494;47;20438;-75
2023/11/28 02:46:01;;;;;;;8.90;7.70;;;;;;;;;;2613668;39;20831;-74
2023/11/28 02:48:27;;;;;;;10.17;9.10;;;;;;;;;;2612270;47;21009;-74
2023/11/28 02:50:53;;;;;;;12.17;9.90;;;;;;;;;;2612718;54;20442;-73
2023/11/28 02:53:19;;;;;;;17.10;10.00;;;;;;;;;;2612597;54;20518;-75
2023/11/28 02:55:45;;;;;;;13.27;11.20;;;;;;;;;;2612326;54;20479;-75
2023/11/28 02:58:11;;;;;;;12.27;10.60;;;;;;;;;;2612389;54;20558;-74
2023/11/28 03:00:37;;;;;;;14.83;10.37;;;;;;;;;;2612469;54;20413;-75
2023/11/28 03:03:04;;;;;;;11.70;9.57;;;;;;;;;;2612254;54;20530;-76
2023/11/28 03:05:31;;;;;;;14.50;12.17;;;;;;;;;;2612981;54;20677;-74
2023/11/28 03:07:57;;;;;;;14.17;11.77;;;;;;;;;;2612659;54;21001;-75
2023/11/28 03:10:23;;;;;;;13.90;8.73;;;;;;;;;;2613802;54;20454;-75
2023/11/28 03:12:50;;;;;;;12.87;11.30;;;;;;;;;;2612626;54;20471;-75
2023/11/28 03:15:16;;;;;;;8.77;7.87;;;;;;;;;;2613854;54;21071;-76
2023/11/28 03:17:43;;;;;;;12.20;10.20;;;;;;;;;;2613259;54;20399;-76
2023/11/28 03:20:12;;;;;;;15.17;13.57;;;;;;;;;;2613202;54;20459;-75
2023/11/28 03:22:39;;;;;;;14.50;11.40;;;;;;;;;;2613162;54;20970;-75
2023/11/28 03:25:14;;;;;;;12.97;10.50;;;;;;;;;;2612216;53;20437;-75
2023/11/28 03:27:40;;;;;;;10.00;8.07;;;;;;;;;;2612916;54;20416;-73
2023/11/28 03:30:06;;;;;;;13.97;12.47;;;;;;;;;;2611805;51;20419;-74
2023/11/28 03:32:33;;;;;;;15.50;12.40;;;;;;;;;;2612233;54;20402;-75
2023/11/28 03:34:59;;;;;;;12.47;10.10;;;;;;;;;;2612437;54;20446;-75
2023/11/28 03:37:26;;;;;;;12.57;11.17;;;;;;;;;;2612157;54;20383;-74
2023/11/28 03:39:52;;;;;;;12.57;10.90;;;;;;;;;;2612581;54;20523;-73
2023/11/28 03:42:19;;;;;;;9.23;7.50;;;;;;;;;;2613360;31;20856;-74
2023/11/28 03:44:45;;;;;;;13.83;11.70;;;;;;;;;;2612927;54;20375;-74
2023/11/28 03:47:11;;;;;;;13.17;11.20;;;;;;;;;;2612348;54;20958;-74
2023/11/28 03:49:37;;;;;;;13.73;10.83;;;;;;;;;;2612540;54;20405;-73
2023/11/28 03:52:03;;;;;;;13.47;10.87;;;;;;;;;;2611654;46;20533;-74
2023/11/28 03:54:29;;;;;;;13.83;10.77;;;;;;;;;;2612545;54;20396;-74
2023/11/28 03:56:55;;;;;;;14.90;12.07;;;;;;;;;;2611422;47;20423;-74
2023/11/28 03:59:21;;;;;;;12.90;11.53;;;;;;;;;;2612264;54;20465;-74
2023/11/28 04:01:48;;;;;;;10.70;8.70;;;;;;;;;;2611799;50;20908;-73
2023/11/28 04:04:14;;;;;;;12.97;9.87;;;;;;;;;;2611987;54;20503;-74
2023/11/28 04:06:40;;;;;;;16.53;11.00;;;;;;;;;;2612208;54;21455;-74
2023/11/28 04:09:06;;;;;;;13.63;11.37;;;;;;;;;;2612539;54;20428;-75
2023/11/28 04:11:32;;;;;;;14.17;10.40;;;;;;;;;;2611937;47;20399;-74
2023/11/28 04:13:58;;;;;;;17.17;12.33;;;;;;;;;;2612534;54;20479;-74
2023/11/28 04:16:25;;;;;;;13.43;10.47;;;;;;;;;;2611765;54;20426;-72
2023/11/28 04:18:52;;;;;;;14.93;10.10;;;;;;;;;;2612130;54;20452;-74
2023/11/28 04:21:20;;;;;;;13.60;11.40;;;;;;;;;;2612382;54;20421;-74
2023/11/28 04:23:46;;;;;;;14.23;11.70;;;;;;;;;;2611497;47;20409;-74
2023/11/28 04:26:12;;;;;;;13.13;11.37;;;;;;;;;;2612521;54;20520;-73
2023/11/28 04:28:38;;;;;;;12.87;10.87;;;;;;;;;;2611551;47;20401;-74
2023/11/28 04:31:05;;;;;;;17.60;11.57;;;;;;;;;;2611821;47;21013;-74
2023/11/28 04:33:31;;;;;;;15.67;11.30;;;;;;;;;;2612176;54;20383;-74
2023/11/28 04:35:57;;;;;;;14.17;12.13;;;;;;;;;;2613032;39;20970;-73
2023/11/28 04:38:23;;;;;;;12.67;10.37;;;;;;;;;;2612339;54;20390;-74
2023/11/28 04:40:52;;;;;;;18.63;12.70;;;;;;;;;;2612263;54;20976;-73
2023/11/28 04:43:18;;;;;;;15.57;11.60;;;;;;;;;;2612037;54;20391;-73
2023/11/28 04:45:44;;;;;;;13.77;11.03;;;;;;;;;;2612439;46;20398;-74
2023/11/28 04:48:10;;;;;;;13.77;11.00;;;;;;;;;;2612792;54;20419;-73
2023/11/28 04:50:36;;;;;;;15.07;10.97;;;;;;;;;;2612976;54;20387;-73
2023/11/28 04:53:03;;;;;;;12.77;9.27;;;;;;;;;;2611921;54;20398;-73
2023/11/28 04:55:29;;;;;;;13.03;10.73;;;;;;;;;;2611688;47;20519;-72
2023/11/28 04:57:55;;;;;;;11.23;10.13;;;;;;;;;;2612130;54;20410;-74
2023/11/28 05:00:22;;;;;;;12.80;9.60;;;;;;;;;;2613144;54;20974;-75
2023/11/28 05:02:48;;;;;;;13.63;9.97;;;;;;;;;;2614017;54;20511;-75
2023/11/28 05:05:15;;;;;;;14.07;11.23;;;;;;;;;;2612810;54;20446;-75
2023/11/28 05:07:43;;;;;;;9.77;8.50;;;;;;;;;;2612926;47;20981;-76
2023/11/28 05:10:10;;;;;;;12.90;9.50;;;;;;;;;;2613362;54;20419;-76
2023/11/28 05:12:36;;;;;;;10.07;7.30;;;;;;;;;;2613457;54;20401;-75
2023/11/28 05:15:02;;;;;;;15.63;11.20;;;;;;;;;;2613393;54;20426;-75
2023/11/28 05:17:28;;;;;;;16.33;9.30;;;;;;;;;;2613412;54;20427;-75
2023/11/28 05:19:56;;;;;;;12.47;10.70;;;;;;;;;;2613428;54;20418;-75
2023/11/28 05:22:22;;;;;;;12.03;8.97;;;;;;;;;;2613247;54;20406;-75
2023/11/28 05:24:49;;;;;;;12.27;10.60;;;;;;;;;;2613018;54;20966;-75
2023/11/28 05:27:15;;;;;;;14.30;10.40;;;;;;;;;;2613111;54;20432;-75
2023/11/28 05:29:41;;;;;;;15.03;10.30;;;;;;;;;;2613556;54;20407;-75
2023/11/28 05:32:07;;;;;;;17.67;10.67;;;;;;;;;;2612837;54;20387;-76
2023/11/28 05:34:33;;;;;;;14.87;11.83;;;;;;;;;;2612704;47;20452;-75
2023/11/28 05:36:59;;;;;;;14.83;11.50;;;;;;;;;;2612842;47;20399;-75
2023/11/28 05:39:25;;;;;;;15.03;11.43;;;;;;;;;;2613129;47;20435;-74
2023/11/28 05:41:52;;;;;;;14.90;11.43;;;;;;;;;;2614057;54;20426;-76
2023/11/28 05:44:20;;;;;;;18.97;11.30;;;;;;;;;;2614178;54;20984;-75
2023/11/28 05:46:46;;;;;;;15.07;10.63;;;;;;;;;;2613071;51;20416;-76
2023/11/28 05:49:13;;;;;;;18.47;12.10;;;;;;;;;;2613513;54;20490;-73
2023/11/28 05:51:39;;;;;;;12.90;9.80;;;;;;;;;;2612238;54;20962;-74
2023/11/28 05:54:05;;;;;;;12.00;9.90;;;;;;;;;;2612077;54;20404;-74
2023/11/28 05:56:31;;;;;;;12.20;9.40;;;;;;;;;;2611411;54;20425;-74
2023/11/28 05:58:57;;;;;;;14.63;11.40;;;;;;;;;;2610882;51;21277;-75
2023/11/28 06:01:26;;;;;;;14.30;9.93;;;;;;;;;;2613990;54;20420;-75
2023/11/28 06:03:52;;;;;;;12.03;9.77;;;;;;;;;;2613566;47;20407;-75
2023/11/28 06:06:18;;;;;;;12.00;9.20;;;;;;;;;;2613342;54;20977;-76
2023/11/28 06:08:45;;;;;;;12.80;9.50;;;;;;;;;;2614053;54;20395;-75
2023/11/28 06:11:11;;;;;;;11.77;8.77;;;;;;;;;;2613723;54;20471;-75
2023/11/28 06:13:38;;;;;;;11.27;9.40;;;;;;;;;;2614149;54;20430;-75
2023/11/28 06:16:04;;;;;;;9.97;8.93;;;;;;;;;;2614293;54;20410;-75
2023/11/28 06:18:30;;;;;;;12.30;9.50;;;;;;;;;;2613492;47;20431;-75
2023/11/28 06:20:56;;;;;;;11.40;8.20;;;;;;;;;;2614195;54;20414;-75
2023/11/28 06:23:24;;;;;;;10.87;8.90;;;;;;;;;;2614501;54;20473;-76
2023/11/28 06:25:51;;;;;;;13.30;8.60;;;;;;;;;;2614148;54;20958;-75
2023/11/28 06:28:17;;;;;;;9.43;8.43;;;;;;;;;;2613802;54;21013;-75
2023/11/28 06:30:43;;;;;;;11.23;8.57;;;;;;;;;;2614218;54;20490;-76
2023/11/28 06:33:09;;;;;;;9.30;8.00;;;;;;;;;;2614038;47;20537;-76
2023/11/28 06:35:35;;;;;;;10.20;7.67;;;;;;;;;;2613552;47;21044;-75
2023/11/28 06:38:02;;;;;;;10.87;7.07;;;;;;;;;;2614223;46;20422;-75
2023/11/28 06:40:29;;;;;;;7.13;6.43;;;;;;;;;;2614589;39;20799;-75
2023/11/28 06:42:58;;;;;;;7.93;6.13;;;;;;;;;;2614641;47;20423;-74
2023/11/28 06:45:25;;;;;;;8.20;6.00;;;;;;;;;;2615259;54;20490;-76
2023/11/28 06:47:51;;;;;;;8.97;6.50;;;;;;;;;;2614808;54;20450;-76
2023/11/28 06:50:18;;;;;;;7.63;5.80;;;;;;;;;;2615603;54;20538;-75
2023/11/28 06:52:46;;;;;;;10.10;7.23;;;;;;;;;;2614934;54;20989;-75
2023/11/28 06:55:13;;;;;;;7.40;5.27;;;;;;;;;;2615179;54;20451;-77
2023/11/28 06:57:39;;;;;;;8.27;5.67;;;;;;;;;;2615849;54;20513;-76
2023/11/28 07:00:05;;;;;;;7.17;5.70;;;;;;;;;;2613027;47;20407;-74
2023/11/28 07:02:32;;;;;;;6.27;5.50;;;;;;;;;;2611926;47;20401;-73
2023/11/28 07:04:58;;;;;;;4.97;4.47;;;;;;;;;;2612421;54;20405;-74
2023/11/28 07:07:24;;;;;;;10.33;5.60;;;;;;;;;;2611973;54;20906;-75
2023/11/28 07:09:50;;;;;;;7.03;5.30;;;;;;;;;;2612418;54;20484;-74
2023/11/28 07:12:16;;;;;;;7.37;5.33;;;;;;;;;;2613009;39;21107;-75
2023/11/28 07:14:42;;;;;;;6.53;4.93;;;;;;;;;;2610964;54;20462;-74
2023/11/28 07:17:08;;;;;;;6.70;4.30;;;;;;;;;;2611632;54;20391;-74
2023/11/28 07:19:35;;;;;;;10.63;4.60;;;;;;;;;;2612287;54;20427;-77
2023/11/28 07:22:01;;;;;;;5.83;4.70;;;;;;;;;;2613047;54;21006;-74
2023/11/28 07:24:27;;;;;;;6.73;4.63;;;;;;;;;;2612171;54;20411;-76
2023/11/28 07:26:53;;;;;;;6.07;5.00;;;;;;;;;;2612774;54;20630;-75
2023/11/28 07:29:19;;;;;;;6.13;4.50;;;;;;;;;;2612548;54;20420;-76
2023/11/28 07:31:46;;;;;;;6.53;4.20;;;;;;;;;;2611862;47;20415;-74
2023/11/28 07:34:13;;;;;;;7.50;5.00;;;;;;;;;;2611799;47;20454;-75
2023/11/28 07:36:39;;;;;;;6.73;4.37;;;;;;;;;;2611964;54;20398;-75
2023/11/28 07:39:05;;;;;;;6.23;4.60;;;;;;;;;;2611884;54;20414;-74
2023/11/28 07:41:31;;;;;;;8.97;5.40;;;;;;;;;;2611680;39;21021;-75
2023/11/28 07:43:57;;;;;;;6.07;4.57;;;;;;;;;;2612409;54;20432;-74
2023/11/28 07:46:23;;;;;;;6.20;4.57;;;;;;;;;;2612729;54;20420;-75
2023/11/28 07:48:49;;;;;;;6.97;4.97;;;;;;;;;;2611949;47;20441;-74
2023/11/28 07:51:15;;;;;;;6.40;4.60;;;;;;;;;;2612161;46;20391;-75
2023/11/28 07:53:41;;;;;;;7.20;5.40;;;;;;;;;;2608718;54;20422;-74
2023/11/28 07:56:08;;;;;;;8.13;4.63;;;;;;;;;;2611925;54;20523;-75
2023/11/28 07:58:34;;;;;;;6.80;4.60;;;;;;;;;;2611780;54;20462;-75
2023/11/28 08:01:00;;;;;;;6.50;4.53;;;;;;;;;;2610789;54;20427;-75
2023/11/28 08:03:27;;;;;;;8.33;5.10;;;;;;;;;;2612059;47;20398;-75
2023/11/28 08:05:53;;;;;;;8.20;5.73;;;;;;;;;;2611992;47;20463;-76
2023/11/28 08:08:19;;;;;;;5.60;4.63;;;;;;;;;;2612201;54;20387;-74
2023/11/28 08:10:47;;;;;;;6.57;4.60;;;;;;;;;;2613121;54;20402;-80
2023/11/28 08:13:15;;;;;;;6.83;5.73;;;;;;;;;;2612387;47;20453;-77
2023/11/28 08:15:42;;;;;;;5.83;5.00;;;;;;;;;;2612629;54;20941;-75
2023/11/28 08:18:08;;;;;;;8.30;5.90;;;;;;;;;;2612697;46;20443;-75
2023/11/28 08:20:34;;;;;;;7.10;4.60;;;;;;;;;;2613255;54;20998;-74
2023/11/28 08:23:00;;;;;;;7.03;5.80;;;;;;;;;;2612934;54;20423;-73
2023/11/28 08:25:27;;;;;;;8.20;5.10;;;;;;;;;;2613254;54;21343;-74
2023/11/28 08:27:53;;;;;;;8.13;5.37;;;;;;;;;;2611582;47;20486;-76
2023/11/28 08:30:19;;;;;;;6.63;5.03;;;;;;;;;;2612447;54;20519;-74
2023/11/28 08:32:46;;;;;;;6.93;5.57;;;;;;;;;;2612775;54;20423;-75
2023/11/28 08:35:12;;;;;;;5.50;4.50;;;;;;;;;;2612435;47;20447;-74
2023/11/28 08:37:38;;;;;;;5.90;4.93;;;;;;;;;;2613129;54;20427;-73
2023/11/28 08:40:05;;;;;;;7.27;4.70;;;;;;;;;;2611579;54;20478;-76
2023/11/28 08:42:33;;;;;;;6.60;4.67;;;;;;;;;;2612060;54;20467;-76
2023/11/28 08:44:59;;;;;;;6.47;4.63;;;;;;;;;;2612189;54;20423;-76
2023/11/28 08:47:25;;;;;;;5.23;4.27;;;;;;;;;;2611832;54;20464;-76
2023/11/28 08:49:52;;;;;;;3.77;3.30;;;;;;;;;;2611928;54;20416;-75
2023/11/28 08:52:19;;;;;;;5.73;3.73;;;;;;;;;;2611297;47;20411;-76
2023/11/28 08:54:46;;;;;;;6.90;4.60;;;;;;;;;;2610467;54;20526;-75
2023/11/28 08:57:15;;;;;;;5.93;3.33;;;;;;;;;;2612040;54;20450;-76
2023/11/28 08:59:41;;;;;;;8.13;4.00;;;;;;;;;;2611551;54;20367;-75
2023/11/28 09:02:08;;;;;;;4.53;3.17;;;;;;;;;;2611445;54;20436;-78
2023/11/28 09:04:34;;;;;;;3.80;3.43;;;;;;;;;;2611403;47;20434;-77
2023/11/28 09:07:00;;;;;;;3.67;3.27;;;;;;;;;;2611450;47;21006;-76
2023/11/28 09:09:27;;;;;;;3.70;3.40;;;;;;;;;;2611679;54;20411;-76
2023/11/28 09:11:53;;;;;;;4.53;3.70;;;;;;;;;;2610399;54;20432;-75
2023/11/28 09:14:19;;;;;;;5.20;3.80;;;;;;;;;;2610948;49;20414;-76
2023/11/28 09:16:45;;;;;;;3.67;3.37;;;;;;;;;;2611161;47;20423;-76
2023/11/28 09:19:15;;;;;;;4.53;3.20;;;;;;;;;;2611513;54;20407;-76
2023/11/28 09:21:48;;;;;;;5.60;3.07;;;;;;;;;;2617016;54;20411;-77
2023/11/28 09:24:15;;;;;;;4.10;3.00;;;;;;;;;;2616198;54;20411;-77
2023/11/28 09:26:43;;;;;;;2.70;2.40;;;;;;;;;;2616150;47;20959;-77
2023/11/28 09:29:09;;;;;;;4.20;3.40;;;;;;;;;;2616414;54;20447;-76
2023/11/28 09:31:38;;;;;;;2.93;2.67;;;;;;;;;;2616424;54;20419;-76
2023/11/28 09:34:04;;;;;;;3.30;3.00;;;;;;;;;;2616199;54;20467;-76
2023/11/28 09:36:31;;;;;;;4.03;3.63;;;;;;;;;;2616046;47;20416;-76
2023/11/28 09:39:03;;;;;;;3.87;3.40;;;;;;;;;;2616546;51;20424;-76
2023/11/28 09:41:38;;;;;;;4.10;3.50;;;;;;;;;;2616478;54;20428;-77
2023/11/28 09:44:07;;;;;;;6.73;3.07;;;;;;;;;;2615674;47;20527;-76
2023/11/28 09:46:45;;;;;;;3.70;3.17;;;;;;;;;;2616772;54;20416;-75
2023/11/28 09:49:11;;;;;;;3.90;3.50;;;;;;;;;;2615697;47;20973;-74
2023/11/28 09:51:39;;;;;;;4.37;3.30;;;;;;;;;;2614023;54;20595;-79
2023/11/28 09:54:07;;;;;;;3.70;3.30;;;;;;;;;;2615441;54;20420;-75
2023/11/28 09:56:34;;;;;;;4.97;3.83;;;;;;;;;;2615264;47;20421;-75
2023/11/28 09:59:02;;;;;;;4.27;3.87;;;;;;;;;;2615702;54;20426;-76
2023/11/28 10:01:31;;;;;;;3.93;3.10;;;;;;;;;;2615802;54;20473;-76
2023/11/28 10:04:00;;;;;;;4.63;3.30;;;;;;;;;;2615444;54;20419;-76
2023/11/28 10:06:26;;;;;;;3.40;3.00;;;;;;;;;;2615338;39;20907;-76
2023/11/28 10:08:56;;;;;;;3.90;3.37;;;;;;;;;;2615253;54;20806;-76
2023/11/28 10:11:22;;;;;;;3.97;3.57;;;;;;;;;;2615730;54;20414;-77
2023/11/28 10:13:49;;;;;;;5.23;3.90;;;;;;;;;;2615946;54;20428;-76
2023/11/28 10:16:18;;;;;;;4.23;3.77;;;;;;;;;;2616466;54;20435;-77
2023/11/28 10:18:48;;;;;;;5.30;3.40;;;;;;;;;;2616367;54;20438;-76
2023/11/28 10:21:17;;;;;;;4.40;3.93;;;;;;;;;;2615901;54;20442;-76
2023/11/28 10:23:46;;;;;;;4.03;3.53;;;;;;;;;;2615734;54;20459;-75
2023/11/28 10:26:36;;;;;;;5.00;4.00;;;;;;;;;;2616380;54;21079;-76
2023/11/28 10:29:05;;;;;;;4.37;3.73;;;;;;;;;;2615654;54;20387;-77
2023/11/28 10:31:41;;;;;;;3.30;3.00;;;;;;;;;;2616613;46;21005;-76
2023/11/28 10:34:11;;;;;;;4.60;3.90;;;;;;;;;;2615092;47;20434;-76
2023/11/28 10:36:44;;;;;;;4.77;3.73;;;;;;;;;;2616384;54;20961;-76
2023/11/28 10:39:10;;;;;;;4.60;3.73;;;;;;;;;;2615779;54;20558;-76
2023/11/28 10:41:37;;;;;;;6.33;3.70;;;;;;;;;;2612047;54;20427;-74
2023/11/28 10:44:03;;;;;;;6.33;4.10;;;;;;;;;;2612043;54;20394;-75
2023/11/28 10:46:33;;;;;;;9.43;4.23;;;;;;;;;;2612455;47;20470;-75
2023/11/28 10:48:59;;;;;;;5.70;4.00;;;;;;;;;;2614987;39;20510;-75
2023/11/28 10:51:28;;;;;;;5.43;4.57;;;;;;;;;;2615268;47;21275;-75
2023/11/28 10:53:55;;;;;;;5.03;4.53;;;;;;;;;;2614863;54;20424;-75
2023/11/28 10:56:22;;;;;;;6.20;4.73;;;;;;;;;;2614341;54;20431;-75
2023/11/28 10:58:48;;;;;;;6.93;4.60;;;;;;;;;;2614832;46;20442;-75
2023/11/28 11:01:16;;;;;;;6.10;4.40;;;;;;;;;;2614718;54;20423;-74
2023/11/28 11:03:43;;;;;;;5.10;4.60;;;;;;;;;;2614467;54;20582;-75
2023/11/28 11:06:09;;;;;;;5.00;4.23;;;;;;;;;;2615101;54;21007;-74
2023/11/28 11:08:36;;;;;;;5.90;4.30;;;;;;;;;;2614977;54;20972;-75
2023/11/28 11:11:03;;;;;;;5.30;4.43;;;;;;;;;;2612427;54;20444;-74
2023/11/28 11:13:36;;;;;;;5.87;4.60;;;;;;;;;;2611603;54;20527;-75
2023/11/28 11:16:19;;;;;;;5.00;4.27;;;;;;;;;;2611934;54;20396;-74
2023/11/28 11:18:46;;;;;;;6.20;4.70;;;;;;;;;;2612593;54;20449;-74
2023/11/28 11:21:18;;;;;;;4.77;4.37;;;;;;;;;;2612159;54;20382;-76
2023/11/28 11:23:47;;;;;;;5.87;4.20;;;;;;;;;;2609925;53;20419;-74
2023/11/28 11:26:13;;;;;;;5.10;4.60;;;;;;;;;;2611456;54;20426;-75
2023/11/28 11:28:40;;;;;;;9.27;4.83;;;;;;;;;;2612078;54;20398;-76
2023/11/28 11:31:15;;;;;;;4.40;4.00;;;;;;;;;;2611650;54;20427;-75
2023/11/28 11:33:42;;;;;;;5.77;4.30;;;;;;;;;;2611800;54;20391;-75
2023/11/28 11:36:10;;;;;;;4.20;3.80;;;;;;;;;;2611179;39;20830;-74
2023/11/28 11:38:37;;;;;;;5.33;4.67;;;;;;;;;;2612026;54;20395;-74
2023/11/28 11:41:08;;;;;;;6.00;4.57;;;;;;;;;;2611323;50;20415;-74
2023/11/28 11:43:39;;;;;;;4.07;3.50;;;;;;;;;;2611520;54;20416;-75
2023/11/28 11:46:09;;;;;;;4.63;3.87;;;;;;;;;;2612165;54;21268;-76
2023/11/28 11:48:35;;;;;;;8.50;4.97;;;;;;;;;;2610952;54;20522;-75
2023/11/28 11:51:02;;;;;;;4.00;3.60;;;;;;;;;;2612546;39;20889;-74
2023/11/28 11:53:30;;;;;;;9.10;4.27;;;;;;;;;;2611521;54;20910;-75
2023/11/28 11:56:00;;;;;;;4.27;3.87;;;;;;;;;;2611383;54;20387;-74
2023/11/28 11:58:26;;;;;;;4.93;4.50;;;;;;;;;;2612652;46;20414;-74
2023/11/28 12:00:53;;;;;;;6.40;4.93;;;;;;;;;;2614688;47;20443;-76
2023/11/28 12:03:19;;;;;;;3.77;3.37;;;;;;;;;;2614751;54;20525;-75
2023/11/28 12:05:57;;;;;;;5.43;4.17;;;;;;;;;;2614576;54;20516;-75
2023/11/28 12:08:23;;;;;;;5.90;3.80;;;;;;;;;;2613991;48;20410;-76
2023/11/28 12:10:49;;;;;;;4.33;3.37;;;;;;;;;;2613804;47;20419;-74
2023/11/28 12:13:19;;;;;;;4.23;3.83;;;;;;;;;;2613836;46;20435;-75
2023/11/28 12:15:46;;;;;;;4.93;4.10;;;;;;;;;;2614433;47;21316;-75
2023/11/28 12:18:13;;;;;;;6.53;4.77;;;;;;;;;;2614186;47;20403;-75
2023/11/28 12:20:39;;;;;;;5.33;3.90;;;;;;;;;;2612182;54;20458;-75
2023/11/28 12:23:10;;;;;;;5.40;4.37;;;;;;;;;;2610890;54;20424;-75
2023/11/28 12:25:37;;;;;;;5.47;4.80;;;;;;;;;;2611518;54;20420;-77
2023/11/28 12:28:04;;;;;;;4.53;3.93;;;;;;;;;;2611186;47;20433;-74
2023/11/28 12:30:30;;;;;;;8.53;4.43;;;;;;;;;;2611704;54;20418;-75
2023/11/28 12:32:57;;;;;;;4.70;4.20;;;;;;;;;;2611791;46;20417;-74
2023/11/28 12:35:23;;;;;;;7.13;5.30;;;;;;;;;;2610236;54;20455;-74
2023/11/28 12:37:49;;;;;;;8.27;7.20;;;;;;;;;;2611023;54;20427;-75
2023/11/28 12:40:17;;;;;;;6.43;5.83;;;;;;;;;;2611479;54;20970;-75
2023/11/28 12:42:44;;;;;;;7.50;6.30;;;;;;;;;;2611235;54;20415;-75
2023/11/28 12:45:10;;;;;;;4.67;4.13;;;;;;;;;;2610963;54;20439;-74
2023/11/28 12:47:36;;;;;;;6.60;4.53;;;;;;;;;;2612141;31;20916;-75
2023/11/28 12:50:03;;;;;;;5.03;3.83;;;;;;;;;;2610905;54;20411;-75
2023/11/28 12:52:29;;;;;;;7.13;5.00;;;;;;;;;;2610737;54;21033;-74
2023/11/28 12:54:55;;;;;;;5.37;4.07;;;;;;;;;;2612144;54;20387;-75
2023/11/28 12:57:24;;;;;;;5.60;4.50;;;;;;;;;;2611680;39;20895;-74
2023/11/28 12:59:51;;;;;;;6.27;4.73;;;;;;;;;;2611635;54;21358;-78
2023/11/28 13:02:17;;;;;;;5.50;4.60;;;;;;;;;;2614002;47;20398;-77
2023/11/28 13:04:43;;;;;;;4.90;4.50;;;;;;;;;;2614691;54;20418;-76
2023/11/28 13:07:09;;;;;;;5.23;4.40;;;;;;;;;;2613856;54;20426;-76
2023/11/28 13:09:36;;;;;;;4.30;3.90;;;;;;;;;;2614100;47;20406;-77
2023/11/28 13:12:03;;;;;;;4.63;4.17;;;;;;;;;;2614365;49;20978;-77
2023/11/28 13:14:29;;;;;;;4.40;4.00;;;;;;;;;;2614553;54;20499;-76
2023/11/28 13:16:55;;;;;;;4.23;3.83;;;;;;;;;;2614302;47;20399;-77
2023/11/28 13:19:22;;;;;;;9.33;4.20;;;;;;;;;;2615069;54;20411;-76
2023/11/28 13:21:48;;;;;;;8.10;5.93;;;;;;;;;;2615864;39;20636;-77
2023/11/28 13:24:15;;;;;;;4.03;3.43;;;;;;;;;;2615533;54;21305;-79
2023/11/28 13:26:41;;;;;;;4.87;4.30;;;;;;;;;;2614505;47;20416;-78
2023/11/28 13:29:09;;;;;;;9.03;5.40;;;;;;;;;;2614351;54;20410;-76
2023/11/28 13:31:35;;;;;;;5.20;3.80;;;;;;;;;;2612101;54;20511;-75
2023/11/28 13:34:02;;;;;;;5.23;4.70;;;;;;;;;;2611818;46;21002;-74
2023/11/28 13:36:29;;;;;;;4.20;3.53;;;;;;;;;;2611233;54;20406;-76
2023/11/28 13:38:55;;;;;;;4.10;3.73;;;;;;;;;;2610692;39;20865;-73
2023/11/28 13:41:22;;;;;;;7.70;4.13;;;;;;;;;;2611936;54;20418;-74
2023/11/28 13:43:48;;;;;;;4.30;3.80;;;;;;;;;;2611263;39;20821;-75
2023/11/28 13:46:14;;;;;;;4.50;3.70;;;;;;;;;;2611158;54;20413;-75
2023/11/28 13:48:40;;;;;;;5.33;4.43;;;;;;;;;;2608695;54;20977;-74
2023/11/28 13:51:08;;;;;;;3.80;3.50;;;;;;;;;;2610347;54;20478;-74
2023/11/28 13:53:34;;;;;;;4.30;3.90;;;;;;;;;;2611351;54;20562;-74
2023/11/28 13:56:00;;;;;;;5.20;3.67;;;;;;;;;;2610370;54;20402;-74
2023/11/28 13:58:27;;;;;;;6.70;3.73;;;;;;;;;;2611442;54;20465;-74
2023/11/28 14:00:54;;;;;;;4.30;3.90;;;;;;;;;;2611802;54;20828;-76
2023/11/28 14:03:24;;;;;;;5.77;4.20;;;;;;;;;;2610080;54;20390;-75
2023/11/28 14:05:51;;;;;;;4.80;4.40;;;;;;;;;;2609276;47;20432;-74
2023/11/28 14:08:17;;;;;;;6.77;5.63;;;;;;;;;;2610486;47;20398;-75
2023/11/28 14:10:43;;;;;;;8.83;5.30;;;;;;;;;;2612515;54;20498;-75
2023/11/28 14:13:11;;;;;;;5.83;4.40;;;;;;;;;;2613997;54;20426;-75
2023/11/28 14:15:37;;;;;;;8.00;6.50;;;;;;;;;;2614109;54;20404;-76
2023/11/28 14:18:03;;;;;;;6.03;3.93;;;;;;;;;;2614431;54;21027;-75
2023/11/28 14:20:31;;;;;;;5.57;4.20;;;;;;;;;;2614029;54;20437;-78
2023/11/28 14:22:57;;;;;;;5.47;4.93;;;;;;;;;;2614517;54;20535;-77
2023/11/28 14:25:23;;;;;;;4.30;3.60;;;;;;;;;;2615054;54;20420;-78
2023/11/28 14:27:51;;;;;;;8.17;4.00;;;;;;;;;;2614469;47;21304;-77
2023/11/28 14:30:23;;;;;;;8.20;6.93;;;;;;;;;;2613642;54;20414;-78
2023/11/28 14:32:49;;;;;;;7.30;4.87;;;;;;;;;;2614704;54;20503;-78
2023/11/28 14:35:17;;;;;;;4.40;3.80;;;;;;;;;;2613456;54;20473;-78